Tiempo atmosférico en la estación meteorológica de Valencia De Don Juan, León (788 m.)



Fecha
DESCASC
Temp. máxima en grados centígrados (hora)
DESCASC
Temp. mínima en grados centígrados (hora)
DESCASC
Temp. media en grados centígrados
DESCASC
Racha de viento máxima en m/sg (hora)
DESCASC
Velocidad máxima media en intervalos de 10 minutos(hora)
DESCASC
Precipitaciones diarias en mm
DESCASC
Precipitaciones de 00:00 a 06:00 en mm
DESCASC
Precipitaciones de 06:00 a 12:00 en mm
DESCASC
Precipitaciones de 12:00 a 18:00 en mm
DESCASC
Precipitaciones de 18:00 a 24:00 en mm
DESCASC
24-05-2020 26.4 (18:20) 8.3 (05:50) 17.3 12.22 (00:10) 8.89 (00:20) 0 0 0 0 0
23-05-2020 23.7 (17:20) 11.6 (23:59) 17.7 14.44 (21:40) 11.11 (21:40) 0 0 0 0 0
22-05-2020 28.6 (17:50) 13.2 (07:20) 20.9 10.56 (20:10) 6.94 (20:10) 0 0 0 0 0
21-05-2020 28.1 (18:40) 10.9 (00:00) 19.5 10.28 (01:30) 6.94 (00:10) 0 0 0 0 0
20-05-2020 27.6 (18:40) 9.4 (00:00) 18.5 8.89 (01:40) 7.22 (01:20) 0 0 0 0 0
19-05-2020 25.6 (18:30) 9.2 (00:00) 17.4 7.22 (00:20) 6.11 (00:20) 0 0 0 0 0
18-05-2020 24.2 (19:10) 6.1 (00:00) 15.2 8.06 (02:00) 6.94 (23:00) 0 0 0 0 0
17-05-2020 21.4 (20:40) 3.4 (00:00) 12.4 9.72 (01:20) 7.22 (01:20) 0 0 0 0 0
16-05-2020 17.8 (18:40) 4.2 (00:00) 11 12.22 (23:30) 8.61 (23:30) 0 0 0 0 0
15-05-2020 13.8 (13:10) 7.1 (00:00) 10.5 10.28 (13:20) 7.22 (15:00) 1.2 0.2 0 0.4 0.6
14-05-2020 14.6 (12:20) 10.4 (00:00) 12.5 12.22 (11:10) 8.61 (10:40) 10.4 0 0 0 10.4
13-05-2020 18.7 (17:20) 9.4 (00:00) 14.1 11.39 (20:20) 8.61 (20:30) 0.2 0.2 0 0 0
12-05-2020 17.8 (18:10) 9.1 (00:00) 13.4 12.22 (20:30) 8.06 (20:30) 0.6 0 0 0 0.6
11-05-2020 18.8 (17:40) 8.2 (00:00) 13.5 8.06 (18:10) 5 (18:10) 0 0 0 0 0
10-05-2020 -- (--) -- (--) -- -- (--) -- (--) -- -- -- -- --
09-05-2020 -- (--) -- (--) -- -- (--) -- (--) -- -- -- -- --
08-05-2020 -- (--) -- (--) -- -- (--) -- (--) -- -- -- -- --
07-05-2020 25.6 (16:20) 9 (00:00) 17.3 10 (20:20) 6.11 (21:10) 0 0 0 0 0
06-05-2020 21.5 (18:40) 5.8 (00:00) 13.7 6.67 (16:50) 4.17 (16:50) 0 0 0 0 0
05-05-2020 19.4 (16:50) 9 (00:00) 14.2 11.67 (19:00) 8.33 (18:20) 0 0 0 0 0
04-05-2020 25.6 (15:00) 10.8 (00:00) 18.2 24.17 (18:30) 15.83 (18:30) 0 0 0 0 0
03-05-2020 24.8 (18:30) 7.5 (00:00) 16.1 8.89 (18:50) 6.67 (23:59) 0 0 0 0 0
02-05-2020 21.7 (19:10) 10 (00:00) 15.9 8.89 (17:40) 5.56 (14:50) 0 0 0 0 0
01-05-2020 19.7 (14:40) 10.6 (00:00) 15.2 16.94 (17:00) 11.94 (17:40) 0.4 0.2 0.2 0 0
30-04-2020 15.1 (15:10) 7.4 (00:00) 11.3 16.39 (16:40) 12.22 (16:50) 0 0 0 0 0
29-04-2020 13.9 (18:20) 7.7 (00:00) 10.8 18.61 (18:10) 11.67 (18:50) 0 0 0 0 0
28-04-2020 -- (--) -- (--) -- -- (--) -- (--) -- -- -- -- 0.2
27-04-2020 -- (--) -- (--) -- -- (--) -- (--) -- -- -- -- --

Gráficas

Temp. máximas Temp. mínimas Temp. medias Precipitaciones Rachas de viento máximas Velocidades máximas media en intervalos de 10 minutos

Datos horarios

Fecha y hora oficial Temperatura (ºC) Velocidad del viento (km/h) Dirección del viento Racha (km/h) Dirección de racha Precipitación (mm) Presión (hPa) Tendencia (hPa) Humedad (%)
2020-05-26 23:00:00 17.8 15 Este 36 Este 0 -- -- 66
2020-05-26 22:00:00 19.8 21 Este 37 Este 0 -- -- 60
2020-05-26 21:00:00 22.5 30 Este 43 Este 0 -- -- 49
2020-05-26 20:00:00 24.3 29 Este 40 Este 0 -- -- 42
2020-05-26 19:00:00 25.1 31 Este 45 Este 0 -- -- 39
2020-05-26 18:00:00 25.6 27 Este 43 Este 0 -- -- 37
2020-05-26 17:00:00 25.6 28 Este 40 Este 0 -- -- 37
2020-05-26 16:00:00 24.7 28 Este 40 Nordeste 0 -- -- 38
2020-05-26 15:00:00 24.3 26 Este 42 Este 0 -- -- 36
2020-05-26 14:00:00 23.4 25 Este 39 Este 0 -- -- 37
2020-05-26 13:00:00 22.2 23 Este 37 Este 0 -- -- 39
2020-05-26 12:00:00 21.2 29 Este 45 Este 0 -- -- 41
2020-05-26 11:00:00 19.8 35 Este 48 Este 0 -- -- 44
2020-05-26 10:00:00 18.1 36 Este 46 Este 0 -- -- 49
2020-05-26 09:00:00 15.4 15 Nordeste 23 Nordeste 0 -- -- 56
2020-05-26 08:00:00 11.7 7 Norte 10 Norte 0 -- -- 67
2020-05-26 07:00:00 9.8 9 Norte 21 Nordeste 0 -- -- 71
2020-05-26 06:00:00 10.2 16 Norte 22 Nordeste 0 -- -- 66
2020-05-26 05:00:00 11.2 21 Nordeste 27 Nordeste 0 -- -- 56
2020-05-26 04:00:00 11.1 19 Nordeste 25 Nordeste 0 -- -- 68
2020-05-26 03:00:00 11.7 17 Nordeste 19 Nordeste 0 -- -- 73
2020-05-26 02:00:00 12.2 11 Nordeste 26 Nordeste 0 -- -- 71
2020-05-26 01:00:00 13.6 21 Nordeste 26 Nordeste 0 -- -- 68
2020-05-26 00:00:00 14.6 18 Nordeste 27 Este 0 -- -- 66
2020-05-25 23:00:00 16.2 22 Este 41 Este 0 -- -- 64
2020-05-25 22:00:00 18.1 31 Este 49 Este 0 -- -- 58
2020-05-25 21:00:00 20.9 32 Este 49 Este 0 -- -- 50
2020-05-25 20:00:00 22.1 30 Este 44 Este 0 -- -- 39
2020-05-25 19:00:00 24.8 22 Este 37 Sudeste 0 -- -- 30
2020-05-25 18:00:00 26.3 15 Este 35 Este 0 -- -- 31
2020-05-25 17:00:00 26.5 14 Nordeste 27 Este 0 -- -- 31
2020-05-25 16:00:00 26.2 12 Sudeste 25 Sudeste 0 -- -- 35
2020-05-25 15:00:00 25.2 9 Este 26 Sudeste 0 -- -- 39
2020-05-25 14:00:00 23.7 12 Este 22 Sudeste 0 -- -- 46
2020-05-25 13:00:00 22.5 10 Sudeste 35 Sudeste 0 -- -- 45
2020-05-25 12:00:00 20.9 11 Este 21 Este 0 -- -- 54
2020-05-25 11:00:00 19.5 6 Nordeste 12 Nordeste 0 -- -- 61
2020-05-25 10:00:00 16.2 9 Nordeste 12 Nordeste 0 -- -- 67
2020-05-25 09:00:00 15.1 10 Norte 16 Norte 0 -- -- 71
2020-05-25 08:00:00 12.3 6 Nordeste 10 Nordeste 0 -- -- 79
2020-05-25 07:00:00 10.8 9 Nordeste 12 Este 0 -- -- 81
2020-05-25 06:00:00 11.1 9 Este 10 Nordeste 0 -- -- 80
2020-05-25 05:00:00 12.3 3 Nordeste 12 Nordeste 0 -- -- 77
2020-05-25 04:00:00 12.8 6 Norte 14 Norte 0 -- -- 75
2020-05-25 03:00:00 14.1 6 Norte 19 Nordeste 0 -- -- 71
2020-05-25 02:00:00 14.9 13 Nordeste 35 Este 0 -- -- 66
2020-05-25 01:00:00 15.4 24 Este 45 Este 0 -- -- 59
2020-05-25 00:00:00 16.7 29 Este 41 Este 0 -- -- 61
2020-05-24 23:00:00 18 29 Este 39 Sudeste 0 -- -- 52
2020-05-24 22:00:00 19.9 21 Este 25 Este 0 -- -- 45
2020-05-24 21:00:00 24.7 6 Este 10 Este 0 -- -- 34
2020-05-24 20:00:00 25.3 5 Nordeste 10 Este 0 -- -- 29
2020-05-24 19:00:00 25.3 4 Este 17 Sur 0 -- -- 30
2020-05-24 18:00:00 25.5 6 Este 15 Norte 0 -- -- 31
2020-05-24 17:00:00 25.4 12 Norte 21 Nordeste 0 -- -- 31
2020-05-24 16:00:00 24.2 10 Nordeste 19 Este 0 -- -- 31
2020-05-24 15:00:00 23 9 Nordeste 20 Nordeste 0 -- -- 32
2020-05-24 14:00:00 21.6 10 Nordeste 21 Este 0 -- -- 38
2020-05-24 13:00:00 19.5 10 Nordeste 22 Este 0 -- -- 39
2020-05-24 12:00:00 17.6 9 Este 20 Este 0 -- -- 44
2020-05-24 11:00:00 15.4 13 Este 26 Este 0 -- -- 44
2020-05-24 10:00:00 13.5 15 Nordeste 25 Nordeste 0 -- -- 47
2020-05-24 09:00:00 11.7 18 Nordeste 24 Nordeste 0 -- -- 60
2020-05-24 08:00:00 9.3 10 Norte 13 Norte 0 -- -- 87
2020-05-24 07:00:00 8.4 12 Norte 15 Norte 0 -- -- 86
2020-05-24 06:00:00 8.3 10 Norte 12 Norte 0 -- -- 85
2020-05-24 05:00:00 8.8 6 Norte 13 Norte 0 -- -- 83
2020-05-24 04:00:00 9.5 10 Norte 26 Este 0 -- -- 79
2020-05-24 03:00:00 9.8 21 Nordeste 30 Nordeste 0 -- -- 80
2020-05-24 02:00:00 10.4 20 Nordeste 39 Este 0 -- -- 78
2020-05-24 01:00:00 10.9 28 Este 44 Este 0 -- -- 78
2020-05-24 00:00:00 11.6 29 Este 49 Este 0 -- -- 75
2020-05-23 23:00:00 12.9 36 Este 52 Este 0 -- -- 73
2020-05-23 22:00:00 15.1 35 Este 52 Este 0 -- -- 66
2020-05-23 21:00:00 18 35 Este 49 Este 0 -- -- 60
2020-05-23 20:00:00 21 31 Este 39 Este 0 -- -- 53
2020-05-23 19:00:00 23.2 18 Este 26 Este 0 -- -- 46
2020-05-23 18:00:00 23.5 11 Sudeste 22 Sudeste 0 -- -- 46
2020-05-23 17:00:00 22.3 8 Nordeste 21 Nordeste 0 -- -- 53
2020-05-23 16:00:00 21.6 10 Este 19 Nordeste 0 -- -- 57
2020-05-23 15:00:00 21.5 7 Sudeste 22 Este 0 -- -- 54
2020-05-23 14:00:00 19.5 14 Este 28 Este 0 -- -- 60
2020-05-23 13:00:00 18.2 13 Este 27 Este 0 -- -- 67
2020-05-23 12:00:00 17.7 18 Este 28 Este 0 -- -- 71
2020-05-23 11:00:00 17.1 21 Este 31 Este 0 -- -- 72
2020-05-23 10:00:00 14.6 23 Este 31 Este 0 -- -- 81
2020-05-23 09:00:00 13.4 23 Este 36 Este 0 -- -- 83
2020-05-23 08:00:00 13.2 23 Sudeste 34 Sudeste 0 -- -- 83
2020-05-23 07:00:00 12.8 18 Sudeste 30 Este 0 -- -- 85
2020-05-23 06:00:00 14.8 9 Este 11 Este 0 -- -- 79
2020-05-23 05:00:00 15.1 7 Norte 17 Noroeste 0 -- -- 79
2020-05-23 04:00:00 16 14 Noroeste 19 Noroeste 0 -- -- 76
2020-05-23 03:00:00 16.6 10 Norte 16 Noroeste 0 -- -- 76
2020-05-23 02:00:00 17.8 13 Noroeste 30 Noroeste 0 -- -- 74
2020-05-23 01:00:00 19 16 Noroeste 26 Noroeste 0 -- -- 67
2020-05-23 00:00:00 19.9 8 Noroeste 18 Oeste 0 -- -- 54
2020-05-22 23:00:00 21.2 13 Sudoeste 18 Sudoeste 0 -- -- 44
2020-05-22 22:00:00 22.8 12 Sudoeste 26 Sudoeste 0 -- -- 40
2020-05-22 21:00:00 25.4 17 Sudoeste 38 Sudoeste 0 -- -- 33
2020-05-22 20:00:00 27 23 Sudoeste 36 Sudoeste 0 -- -- 35
2020-05-22 19:00:00 27.9 24 Sudoeste 36 Sudoeste 0 -- -- 34
2020-05-22 18:00:00 28.5 20 Sudoeste 35 Sudoeste 0 -- -- 31
2020-05-22 17:00:00 28.3 17 Sudoeste 33 Sudoeste 0 -- -- 31
2020-05-22 16:00:00 27.8 18 Sur 29 Sur 0 -- -- 26
2020-05-22 15:00:00 26.7 14 Sudoeste 25 Sudoeste 0 -- -- 27
2020-05-22 14:00:00 25.3 16 Sudoeste 27 Sudoeste 0 -- -- 42
2020-05-22 13:00:00 24.3 9 Sudoeste 18 Sur 0 -- -- 44
2020-05-22 12:00:00 23.5 4 Sur 12 Noroeste 0 -- -- 49
2020-05-22 11:00:00 21.6 7 Norte 12 Norte 0 -- -- 57
2020-05-22 10:00:00 19.3 5 Norte 9 Nordeste 0 -- -- 63
2020-05-22 09:00:00 16.6 7 Norte 11 Norte 0 -- -- 74
2020-05-22 08:00:00 14.1 5 Norte 6 Norte 0 -- -- 80
2020-05-22 07:00:00 13.4 6 Nordeste 9 Nordeste 0 -- -- 81
2020-05-22 06:00:00 16.1 3 Oeste 10 Oeste 0 -- -- 75
2020-05-22 05:00:00 17.4 0 Calma 6 Oeste 0 -- -- 71
2020-05-22 04:00:00 18.2 4 Oeste 10 Noroeste 0 -- -- 68
2020-05-22 03:00:00 18.1 7 Noroeste 14 Noroeste 0 -- -- 68
2020-05-22 02:00:00 18.6 5 Norte 13 Sudoeste 0 -- -- 60
2020-05-22 01:00:00 19.8 11 Sudoeste 15 Sur 0 -- -- 54
2020-05-22 00:00:00 20.8 9 Sudoeste 10 Sudoeste 0 -- -- 49
2020-05-21 23:00:00 21.5 8 Sur 12 Sudoeste 0 -- -- 47
2020-05-21 22:00:00 23.2 9 Sudoeste 15 Sudoeste 0 -- -- 43
2020-05-21 21:00:00 25.1 12 Sudoeste 23 Sur 0 -- -- 34
2020-05-21 20:00:00 27.4 15 Sur 28 Sudoeste 0 -- -- 29
2020-05-21 19:00:00 28.1 12 Sudoeste 27 Sudoeste 0 -- -- 27
2020-05-21 18:00:00 28 13 Sudoeste 27 Sur 0 -- -- 30
2020-05-21 17:00:00 27.9 18 Sudoeste 28 Oeste 0 -- -- 28
2020-05-21 16:00:00 27 8 Sudoeste 22 Sudoeste 0 -- -- 31
2020-05-21 15:00:00 26.2 11 Sudoeste 21 Sudoeste 0 -- -- 31
2020-05-21 14:00:00 24.7 3 Nordeste 12 Sudeste 0 -- -- 35
2020-05-21 13:00:00 23.7 5 Sur 13 Nordeste 0 -- -- 36
2020-05-21 12:00:00 21.6 6 Este 13 Nordeste 0 -- -- 44
2020-05-21 11:00:00 19.2 8 Nordeste 14 Nordeste 0 -- -- 53
2020-05-21 10:00:00 17.4 10 Norte 15 Norte 0 -- -- 62
2020-05-21 09:00:00 14.8 11 Norte 13 Norte 0 -- -- 75
2020-05-21 08:00:00 12 6 Norte 13 Norte 0 -- -- 81
2020-05-21 07:00:00 11.2 5 Nordeste 14 Nordeste 0 -- -- 77
2020-05-21 06:00:00 11.6 6 Nordeste 9 Norte 0 -- -- 75
2020-05-21 05:00:00 12.2 9 Nordeste 15 Este 0 -- -- 69
2020-05-21 04:00:00 13.2 10 Nordeste 14 Nordeste 0 -- -- 65
2020-05-21 03:00:00 14 9 Nordeste 17 Norte 0 -- -- 60
2020-05-21 02:00:00 16.1 9 Norte 37 Nordeste 0 -- -- 53
2020-05-21 01:00:00 16.9 9 Noroeste 30 Sudeste 0 -- -- 46
2020-05-21 00:00:00 19.2 23 Este 30 Este 0 -- -- 46
2020-05-20 23:00:00 19.5 14 Sur 22 Sudeste 0 -- -- 50
2020-05-20 22:00:00 21.2 14 Sudeste 15 Sudeste 0 -- -- 45
2020-05-20 21:00:00 22.7 9 Sudeste 13 Sudeste 0 -- -- 44
2020-05-20 20:00:00 26.3 9 Sudeste 14 Sudeste 0 -- -- 32
2020-05-20 19:00:00 26.5 7 Sudeste 15 Sudeste 0 -- -- 34
2020-05-20 18:00:00 27.2 7 Sur 17 Sudoeste 0 -- -- 23
2020-05-20 17:00:00 26.8 9 Oeste 19 Sur 0 -- -- 30
2020-05-20 16:00:00 25.9 9 Sudoeste 20 Sudoeste 0 -- -- 33
2020-05-20 15:00:00 24.8 5 Oeste 15 Sudoeste 0 -- -- 42
2020-05-20 14:00:00 23.8 8 Oeste 17 Sudoeste 0 -- -- 38
2020-05-20 13:00:00 22.9 6 Sudeste 14 Sudeste 0 -- -- 42
2020-05-20 12:00:00 21.2 3 Sudoeste 12 Nordeste 0 -- -- 44
2020-05-20 11:00:00 19.5 2 Noroeste 9 Norte 0 -- -- 54
2020-05-20 10:00:00 17.6 5 Norte 10 Nordeste 0 -- -- 66
2020-05-20 09:00:00 13.8 8 Nordeste 11 Este 0 -- -- 78
2020-05-20 08:00:00 11.1 10 Nordeste 16 Nordeste 0 -- -- 84
2020-05-20 07:00:00 9.5 9 Nordeste 10 Nordeste 0 -- -- 86
2020-05-20 06:00:00 9.8 8 Norte 10 Norte 0 -- -- 86
2020-05-20 05:00:00 10.5 8 Nordeste 11 Nordeste 0 -- -- 83
2020-05-20 04:00:00 11.6 8 Nordeste 10 Nordeste 0 -- -- 75
2020-05-20 03:00:00 13.1 7 Nordeste 19 Nordeste 0 -- -- 65
2020-05-20 02:00:00 14.9 10 Nordeste 32 Este 0 -- -- 56
2020-05-20 01:00:00 16 26 Este 31 Este 0 -- -- 50
2020-05-20 00:00:00 16.6 20 Sudeste 21 Sudeste 0 -- -- 56
2020-05-19 23:00:00 17.7 13 Sudeste 20 Sudeste 0 -- -- 54
2020-05-19 22:00:00 20.5 12 Sudeste 17 Sudeste 0 -- -- 50
2020-05-19 21:00:00 23.4 0 Calma 7 Sur 0 -- -- 38
2020-05-19 20:00:00 24.8 5 Sur 13 Sudeste 0 -- -- 32
2020-05-19 19:00:00 25.5 5 Sur 12 Sur 0 -- -- 31
2020-05-19 18:00:00 25.2 4 Este 15 Sudeste 0 -- -- 35
2020-05-19 17:00:00 25.1 4 Norte 15 Sudoeste 0 -- -- 39
2020-05-19 16:00:00 24.1 6 Este 17 Sudeste 0 -- -- 39
2020-05-19 15:00:00 23.5 4 Oeste 8 Nordeste 0 -- -- 44
2020-05-19 14:00:00 21.7 5 Este 12 Sudeste 0 -- -- 45
2020-05-19 13:00:00 19.7 3 Oeste 8 Sur 0 -- -- 50
2020-05-19 12:00:00 17.7 3 Norte 10 Norte 0 -- -- 57
2020-05-19 11:00:00 15.9 6 Norte 11 Norte 0 -- -- 62
2020-05-19 10:00:00 15 8 Noroeste 11 Noroeste 0 -- -- 68
2020-05-19 09:00:00 13 0 Calma 5 Nordeste 0 -- -- 76
2020-05-19 08:00:00 9.2 4 Nordeste 7 Oeste 0 -- -- 79
2020-05-19 07:00:00 11 3 Este 6 Norte 0 -- -- 64
2020-05-19 06:00:00 11.3 4 Este 6 Este 0 -- -- 65
2020-05-19 05:00:00 11.9 3 Nordeste 5 Nordeste 0 -- -- 63
2020-05-19 04:00:00 12.6 3 Nordeste 5 Norte 0 -- -- 63
2020-05-19 03:00:00 13.2 6 Nordeste 15 Este 0 -- -- 64
2020-05-19 02:00:00 13.3 16 Este 25 Este 0 -- -- 63
2020-05-19 01:00:00 14.5 19 Este 26 Este 0 -- -- 58
2020-05-19 00:00:00 15.8 23 Sudeste 27 Sudeste 0 -- -- 57
2020-05-18 23:00:00 17.3 25 Sudeste 28 Sudeste 0 -- -- 52
2020-05-18 22:00:00 18.3 10 Sudeste 12 Sudeste 0 -- -- 53
2020-05-18 21:00:00 21.8 8 Sudeste 10 Sur 0 -- -- 46
2020-05-18 20:00:00 24.1 4 Sur 11 Sudeste 0 -- -- 32
2020-05-18 19:00:00 24.1 5 Sur 13 Sur 0 -- -- 30
2020-05-18 18:00:00 23.6 6 Nordeste 22 Sur 0 -- -- 30
2020-05-18 17:00:00 23.4 10 Sur 19 Sudeste 0 -- -- 31
2020-05-18 16:00:00 22.6 8 Sur 17 Sudeste 0 -- -- 31
2020-05-18 15:00:00 21.2 6 Sur 13 Sudoeste 0 -- -- 36
2020-05-18 14:00:00 20 6 Sudeste 12 Sur 0 -- -- 42
2020-05-18 13:00:00 18.5 5 Sudoeste 15 Oeste 0 -- -- 42
2020-05-18 12:00:00 17 4 Sudoeste 9 Sudoeste 0 -- -- 43
2020-05-18 11:00:00 14.9 0 Calma 8 Norte 0 -- -- 53
2020-05-18 10:00:00 12.9 6 Norte 12 Norte 0 -- -- 78
2020-05-18 09:00:00 10.2 9 Norte 11 Norte 0 -- -- 79
2020-05-18 08:00:00 7.2 9 Nordeste 10 Nordeste 0 -- -- 88
2020-05-18 07:00:00 6.1 6 Nordeste 9 Nordeste 0 -- -- 88
2020-05-18 06:00:00 7 6 Norte 7 Nordeste 0 -- -- 86
2020-05-18 05:00:00 8 4 Nordeste 6 Nordeste 0 -- -- 85
2020-05-18 04:00:00 9.1 4 Norte 9 Noroeste 0 -- -- 80
2020-05-18 03:00:00 11 8 Nordeste 26 Sudeste 0 -- -- 74
2020-05-18 02:00:00 11.3 22 Sudeste 29 Este 0 -- -- 73
2020-05-18 01:00:00 11.2 4 Norte 21 Sudeste 0 -- -- 64
2020-05-18 00:00:00 11.9 16 Sudeste 21 Sudeste 0 -- -- 62
2020-05-17 23:00:00 14 16 Sudeste 17 Sudeste 0 -- -- 52
2020-05-17 22:00:00 17.2 9 Sudeste 14 Sudeste 0 -- -- 44
2020-05-17 21:00:00 21 2 Nordeste 5 Este 0 -- -- 30
2020-05-17 20:00:00 20.9 3 Sudeste 9 Sudeste 0 -- -- 27
2020-05-17 19:00:00 20.9 7 Sur 15 Este 0 -- -- 30
2020-05-17 18:00:00 20.4 9 Nordeste 19 Norte 0 -- -- 29
2020-05-17 17:00:00 19.9 7 Sudoeste 15 Sur 0 -- -- 31
2020-05-17 16:00:00 18.8 10 Nordeste 22 Este 0 -- -- 38
2020-05-17 15:00:00 17.7 10 Este 22 Nordeste 0 -- -- 36
2020-05-17 14:00:00 16.8 6 Este 19 Nordeste 0 -- -- 42
2020-05-17 13:00:00 15.7 8 Norte 17 Nordeste 0 -- -- 49
2020-05-17 12:00:00 14 5 Sudeste 14 Nordeste 0 -- -- 59
2020-05-17 11:00:00 12.5 6 Norte 14 Norte 0 -- -- 67
2020-05-17 10:00:00 10 9 Norte 14 Norte 0 -- -- 77
2020-05-17 09:00:00 7.1 11 Norte 14 Norte 0 -- -- 88
2020-05-17 08:00:00 4.8 8 Nordeste 14 Nordeste 0 -- -- 90
2020-05-17 07:00:00 3.6 11 Nordeste 13 Nordeste 0 -- -- 91
2020-05-17 06:00:00 4.1 3 Este 13 Nordeste 0 -- -- 89
2020-05-17 05:00:00 4.3 3 Norte 13 Nordeste 0 -- -- 88
2020-05-17 04:00:00 5.2 6 Norte 12 Norte 0 -- -- 87
2020-05-17 03:00:00 5.6 8 Norte 21 Este 0 -- -- 84
2020-05-17 02:00:00 7.1 17 Este 35 Este 0 -- -- 78
2020-05-17 01:00:00 8 25 Este 35 Este 0 -- -- 74
2020-05-17 00:00:00 9 24 Este 44 Este 0 -- -- 71
2020-05-16 23:00:00 10.1 28 Este 39 Este 0 -- -- 68
2020-05-16 22:00:00 11.5 26 Este 37 Este 0 -- -- 64
2020-05-16 21:00:00 13.9 27 Este 38 Este 0 -- -- 61
2020-05-16 20:00:00 16.7 19 Sudeste 31 Sudeste 0 -- -- 54
2020-05-16 19:00:00 17.3 12 Este 20 Sudeste 0 -- -- 47
2020-05-16 18:00:00 17.7 6 Este 17 Este 0 -- -- 47
2020-05-16 17:00:00 17.4 6 Este 23 Este 0 -- -- 49
2020-05-16 16:00:00 16.5 16 Este 27 Este 0 -- -- 50
2020-05-16 15:00:00 16.1 15 Este 32 Este 0 -- -- 52
2020-05-16 14:00:00 15 18 Este 30 Este 0 -- -- 59
2020-05-16 13:00:00 14.1 16 Este 30 Este 0 -- -- 64
2020-05-16 12:00:00 13 24 Este 32 Este 0 -- -- 63
2020-05-16 11:00:00 11.2 13 Nordeste 23 Nordeste 0 -- -- 68
2020-05-16 10:00:00 9.8 16 Norte 21 Norte 0 -- -- 80
2020-05-16 09:00:00 7.8 14 Norte 20 Nordeste 0 -- -- 83
2020-05-16 08:00:00 5.4 12 Nordeste 16 Nordeste 0 -- -- 89
2020-05-16 07:00:00 4.4 6 Norte 20 Este 0 -- -- 88
2020-05-16 06:00:00 4.5 14 Este 19 Este 0 -- -- 88
2020-05-16 05:00:00 5.1 17 Este 22 Este 0 -- -- 87
2020-05-16 04:00:00 5.7 17 Este 22 Este 0 -- -- 87
2020-05-16 03:00:00 6.1 15 Este 19 Este 0 -- -- 87
2020-05-16 02:00:00 7 8 Nordeste 17 Este 0 -- -- 88
2020-05-16 01:00:00 7.8 10 Este 17 Este 0 -- -- 90
2020-05-16 00:00:00 7.1 11 Este 22 Este 0 -- -- 88
2020-05-15 23:00:00 8.3 9 Este 27 Este 0 -- -- 85
2020-05-15 22:00:00 10 14 Este 24 Este 0 -- -- 81
2020-05-15 21:00:00 10.8 9 Nordeste 18 Nordeste 0.4 -- -- 81
2020-05-15 20:00:00 11.2 12 Este 30 Norte 0.2 -- -- 82
2020-05-15 19:00:00 13.3 22 Nordeste 27 Nordeste 0 -- -- 66
2020-05-15 18:00:00 13.4 16 Nordeste 25 Este 0 -- -- 67
2020-05-15 17:00:00 13 17 Nordeste 26 Nordeste 0 -- -- 68
2020-05-15 16:00:00 11.1 18 Nordeste 32 Este 0.4 -- -- 81
2020-05-15 15:00:00 12.1 26 Este 35 Este 0 -- -- 76
2020-05-15 14:00:00 12.5 13 Norte 37 Nordeste 0 -- -- 73
2020-05-15 13:00:00 13.7 6 Nordeste 17 Este 0 -- -- 70
2020-05-15 12:00:00 12.5 9 Nordeste 13 Nordeste 0 -- -- 71
2020-05-15 11:00:00 11.4 3 Este 14 Este 0 -- -- 77
2020-05-15 10:00:00 10.5 4 Este 8 Este 0 -- -- 81
2020-05-15 09:00:00 9.8 5 Este 9 Sudeste 0 -- -- 85
2020-05-15 08:00:00 9 8 Sudeste 10 Sudeste 0 -- -- 88
2020-05-15 07:00:00 8.7 8 Este 12 Este 0 -- -- 87
2020-05-15 06:00:00 9.9 3 Norte 5 Norte 0 -- -- 89
2020-05-15 05:00:00 9.9 2 Noroeste 4 Noroeste 0 -- -- 89
2020-05-15 04:00:00 9.8 3 Norte 6 Este 0 -- -- 88
2020-05-15 03:00:00 9.9 6 Sudeste 13 Norte 0 -- -- 89
2020-05-15 02:00:00 10.2 10 Norte 14 Nordeste 0 -- -- 89
2020-05-15 01:00:00 10.6 8 Nordeste 17 Este 0.2 -- -- 88
2020-05-15 00:00:00 10.4 8 Este 11 Este 1.6 -- -- 90
2020-05-14 23:00:00 10.6 6 Este 10 Este 6.8 -- -- 89
2020-05-14 22:00:00 11.1 0 Calma 20 Sudeste 2 -- -- 87
2020-05-14 21:00:00 11.4 9 Nordeste 21 Nordeste 0 -- -- 83
2020-05-14 20:00:00 12.2 13 Norte 23 Nordeste 0 -- -- 76
2020-05-14 19:00:00 13.3 12 Este 18 Este 0 -- -- 73
2020-05-14 18:00:00 14.2 10 Sudeste 21 Sur 0 -- -- 65
2020-05-14 17:00:00 14 11 Sur 27 Sur 0 -- -- 68
2020-05-14 16:00:00 14.3 14 Sur 22 Sur 0 -- -- 69
2020-05-14 15:00:00 14.6 14 Sudoeste 23 Sur 0 -- -- 70
2020-05-14 14:00:00 13 15 Sur 30 Sudoeste 0 -- -- 75
2020-05-14 13:00:00 13.5 24 Sudeste 39 Este 0 -- -- 73
2020-05-14 12:00:00 14.4 30 Este 44 Este 0 -- -- 70
2020-05-14 11:00:00 13.7 30 Este 43 Este 0 -- -- 75
2020-05-14 10:00:00 11.6 30 Este 38 Este 0 -- -- 81
2020-05-14 09:00:00 11.1 20 Este 29 Nordeste 0 -- -- 83
2020-05-14 08:00:00 10.5 18 Nordeste 31 Nordeste 0 -- -- 85
2020-05-14 07:00:00 10.4 20 Nordeste 26 Este 0 -- -- 85
2020-05-14 06:00:00 10.7 14 Nordeste 26 Nordeste 0 -- -- 85
2020-05-14 05:00:00 10.9 22 Este 37 Este 0 -- -- 84
2020-05-14 04:00:00 11.3 17 Este 25 Nordeste 0 -- -- 85
2020-05-14 03:00:00 11 6 Este 15 Nordeste 0 -- -- 87
2020-05-14 02:00:00 11.2 14 Nordeste 21 Nordeste 0 -- -- 85
2020-05-14 01:00:00 11.3 18 Este 24 Este 0 -- -- 85
2020-05-14 00:00:00 12.2 15 Nordeste 25 Nordeste 0 -- -- 80
2020-05-13 23:00:00 11.9 6 Este 13 Sudoeste 0 -- -- 78
2020-05-13 22:00:00 12.7 11 Sudoeste 30 Sur 0 -- -- 74
2020-05-13 21:00:00 13 24 Sur 41 Sur 0 -- -- 74
2020-05-13 20:00:00 17.3 21 Sur 39 Sur 0 -- -- 59
2020-05-13 19:00:00 17.2 20 Sur 31 Sur 0 -- -- 54
2020-05-13 18:00:00 18.3 9 Sur 19 Sur 0 -- -- 46
2020-05-13 17:00:00 18.4 11 Sur 24 Sudoeste 0 -- -- 46
2020-05-13 16:00:00 17.3 11 Sudoeste 21 Sudoeste 0 -- -- 56
2020-05-13 15:00:00 17.2 12 Sudoeste 22 Sudoeste 0 -- -- 56
2020-05-13 14:00:00 15.4 6 Sur 21 Sudoeste 0 -- -- 64
2020-05-13 13:00:00 14.6 9 Sur 20 Sudoeste 0 -- -- 67
2020-05-13 12:00:00 13.1 11 Sudoeste 18 Sudoeste 0 -- -- 76
2020-05-13 11:00:00 12.2 9 Sudoeste 18 Sudoeste 0 -- -- 82
2020-05-13 10:00:00 11.5 8 Sur 13 Sur 0 -- -- 83
2020-05-13 09:00:00 10.5 4 Sur 10 Sudeste 0 -- -- 87
2020-05-13 08:00:00 9.8 8 Sudeste 10 Sudeste 0 -- -- 91
2020-05-13 07:00:00 9.5 6 Este 7 Este 0 -- -- 90
2020-05-13 06:00:00 9.7 4 Oeste 7 Oeste 0 -- -- 89
2020-05-13 05:00:00 9.7 4 Oeste 13 Oeste 0 -- -- 90
2020-05-13 04:00:00 9.7 9 Sudoeste 13 Sudoeste 0.2 -- -- 90
2020-05-13 03:00:00 10 10 Sudoeste 15 Sur 0 -- -- 89
2020-05-13 02:00:00 10.1 11 Sur 15 Sur 0 -- -- 87
2020-05-13 01:00:00 10.5 10 Sudoeste 15 Sudoeste 0 -- -- 86
2020-05-13 00:00:00 10.9 8 Oeste 17 Sudoeste 0 -- -- 84
2020-05-12 23:00:00 11.6 10 Sur 15 Sudoeste 0 -- -- 78
2020-05-12 22:00:00 11.9 6 Este 37 Sudeste 0.2 -- -- 74
2020-05-12 21:00:00 11.2 23 Sudeste 44 Sudeste 0.4 -- -- 81
2020-05-12 20:00:00 16.4 10 Nordeste 15 Norte 0 -- -- 59
2020-05-12 19:00:00 16.8 11 Nordeste 20 Norte 0 -- -- 57
2020-05-12 18:00:00 17.5 11 Noroeste 17 Noroeste 0 -- -- 57
2020-05-12 17:00:00 16.7 5 Nordeste 14 Nordeste 0 -- -- 57
2020-05-12 16:00:00 16.5 8 Nordeste 17 Sur 0 -- -- 61
2020-05-12 15:00:00 15.4 3 Sudeste 14 Sudeste 0 -- -- 68
2020-05-12 14:00:00 14.5 5 Sur 20 Sudeste 0 -- -- 72
2020-05-12 13:00:00 13.4 15 Sudeste 24 Sudeste 0 -- -- 78
2020-05-12 12:00:00 11.9 19 Sudeste 27 Este 0 -- -- 84
2020-05-12 11:00:00 11.7 20 Nordeste 27 Este 0 -- -- 87
2020-05-12 10:00:00 10.5 21 Este 27 Este 0 -- -- 88
2020-05-12 09:00:00 10.2 20 Este 27 Sudeste 0 -- -- 87
2020-05-12 08:00:00 10 19 Sudeste 29 Sudeste 0 -- -- 88
2020-05-12 07:00:00 9.3 13 Este 19 Este 0 -- -- 91
2020-05-12 06:00:00 10.1 13 Este 23 Sudeste 0 -- -- 90
2020-05-12 05:00:00 10.5 19 Sudeste 27 Sudeste 0 -- -- 89
2020-05-12 04:00:00 11.1 17 Sudeste 26 Sudeste 0 -- -- 89
2020-05-12 03:00:00 10.7 16 Sudeste 24 Sudeste 0 -- -- 89
2020-05-12 02:00:00 10.8 14 Sudeste 21 Sudeste 0 -- -- 87
2020-05-12 01:00:00 11.5 12 Este 17 Este 0 -- -- 83
2020-05-12 00:00:00 12 2 Norte 13 Nordeste 0 -- -- 78
2020-05-11 23:00:00 13 10 Norte 13 Este 0 -- -- 71
2020-05-11 22:00:00 14.5 7 Nordeste 17 Norte 0 -- -- 59
2020-05-11 21:00:00 16.8 8 Oeste 22 Sudoeste 0 -- -- 59
2020-05-11 20:00:00 17 14 Sudoeste 22 Sudoeste 0 -- -- 55
2020-05-11 19:00:00 18.7 11 Sudoeste 29 Sudoeste 0 -- -- 48
2020-05-11 18:00:00 17.9 13 Sur 28 Sur 0 -- -- 49
2020-05-11 17:00:00 18 14 Sur 24 Sur 0 -- -- 51
2020-05-11 16:00:00 16.9 10 Sudoeste 22 Oeste 0 -- -- 56
2020-05-11 15:00:00 15.7 10 Sudoeste 23 Sur 0 -- -- 62
2020-05-11 14:00:00 15.1 13 Sudoeste 25 Sudoeste 0 -- -- 66
2020-05-11 13:00:00 14.8 9 Sudoeste 19 Sudoeste 0 -- -- 66
2020-05-11 12:00:00 13.3 12 Sudoeste 21 Sudoeste 0 -- -- 71
2020-05-11 11:00:00 12.8 10 Sudoeste 17 Oeste 0 -- -- 74
2020-05-11 10:00:00 11.2 5 Oeste 14 Sudoeste 0 -- -- 81
2020-05-11 09:00:00 9.8 8 Sudoeste 17 Sur 0 -- -- 87
2020-05-11 08:00:00 8.6 9 Sudoeste 13 Sur 0 -- -- 91
2020-05-11 07:00:00 8.6 9 Sudoeste 11 Sudoeste 0 -- -- 93
2020-05-11 06:00:00 8.2 2 Norte 17 Sudoeste 0 -- -- 93
2020-05-11 05:00:00 8.9 9 Sudoeste 13 Sudoeste 0 -- -- 90
2020-05-11 04:00:00 9.7 3 Sudoeste 9 Sudoeste 0 -- -- 91
2020-05-11 03:00:00 9.9 7 Sur 10 Sur 0 -- -- 89
2020-05-11 02:00:00 10.7 0 Calma 4 Sudoeste 0 -- -- 87
2020-05-11 01:00:00 10.7 3 Sudoeste 8 Sudoeste 0 -- -- 87
2020-05-11 00:00:00 10.7 3 Sur 5 Nordeste 0 -- -- 84
2020-05-10 23:00:00 10.9 4 Nordeste 14 Oeste 0.2 -- -- 85
2020-05-10 22:00:00 11.1 10 Noroeste 28 Oeste 0 -- -- 81
2020-05-10 21:00:00 11.3 20 Oeste -- -- -- -- -- 81
2020-05-10 20:00:00 -- -- -- -- -- -- -- -- --
2020-05-10 19:00:00 -- -- -- -- -- -- -- -- --
2020-05-10 18:00:00 -- -- -- -- -- -- -- -- --
2020-05-10 17:00:00 -- -- -- -- -- -- -- -- --
2020-05-10 16:00:00 -- -- -- -- -- -- -- -- --
2020-05-10 15:00:00 -- -- -- -- -- -- -- -- --
2020-05-10 14:00:00 -- -- -- -- -- -- -- -- --
2020-05-10 13:00:00 -- -- -- -- -- -- -- -- --
2020-05-10 12:00:00 -- -- -- -- -- -- -- -- --
2020-05-10 11:00:00 -- -- -- -- -- -- -- -- --
2020-05-10 10:00:00 -- -- -- -- -- -- -- -- --
2020-05-10 09:00:00 -- -- -- -- -- -- -- -- --
2020-05-10 08:00:00 -- -- -- -- -- -- -- -- --
2020-05-10 07:00:00 -- -- -- -- -- -- -- -- --
2020-05-10 06:00:00 -- -- -- -- -- -- -- -- --
2020-05-10 05:00:00 -- -- -- -- -- -- -- -- --
2020-05-10 04:00:00 -- -- -- -- -- -- -- -- --
2020-05-10 03:00:00 -- -- -- -- -- -- -- -- --
2020-05-10 02:00:00 -- -- -- -- -- -- -- -- --
2020-05-10 01:00:00 -- -- -- -- -- -- -- -- --
2020-05-10 00:00:00 -- -- -- -- -- -- -- -- --
2020-05-09 23:00:00 -- -- -- -- -- -- -- -- --
2020-05-09 22:00:00 -- -- -- -- -- -- -- -- --
2020-05-09 21:00:00 -- -- -- -- -- -- -- -- --
2020-05-09 20:00:00 -- -- -- -- -- -- -- -- --
2020-05-09 19:00:00 -- -- -- -- -- -- -- -- --
2020-05-09 18:00:00 -- -- -- -- -- -- -- -- --
2020-05-09 17:00:00 -- -- -- -- -- -- -- -- --
2020-05-09 16:00:00 -- -- -- -- -- -- -- -- --
2020-05-09 15:00:00 -- -- -- -- -- -- -- -- --
2020-05-09 14:00:00 -- -- -- -- -- -- -- -- --
2020-05-09 13:00:00 -- -- -- -- -- -- -- -- --
2020-05-09 12:00:00 -- -- -- -- -- -- -- -- --
2020-05-09 11:00:00 -- -- -- -- -- -- -- -- --
2020-05-09 10:00:00 -- -- -- -- -- -- -- -- --
2020-05-09 09:00:00 -- -- -- -- -- -- -- -- --
2020-05-09 08:00:00 -- -- -- -- -- -- -- -- --
2020-05-09 07:00:00 -- -- -- -- -- -- -- -- --
2020-05-09 06:00:00 -- -- -- -- -- -- -- -- --
2020-05-09 05:00:00 -- -- -- -- -- -- -- -- --
2020-05-09 04:00:00 -- -- -- -- -- -- -- -- --
2020-05-09 03:00:00 -- -- -- -- -- -- -- -- --
2020-05-09 02:00:00 -- -- -- -- -- -- -- -- --
2020-05-09 01:00:00 -- -- -- -- -- -- -- -- --
2020-05-09 00:00:00 -- -- -- -- -- -- -- -- --
2020-05-08 23:00:00 -- -- -- -- -- -- -- -- --
2020-05-08 22:00:00 -- -- -- -- -- -- -- -- --
2020-05-08 21:00:00 -- -- -- -- -- -- -- -- --
2020-05-08 20:00:00 -- -- -- -- -- -- -- -- --
2020-05-08 19:00:00 -- -- -- -- -- -- -- -- --
2020-05-08 18:00:00 -- -- -- -- -- -- -- -- --
2020-05-08 17:00:00 -- -- -- -- -- -- -- -- --
2020-05-08 16:00:00 -- -- -- -- -- -- -- -- --
2020-05-08 15:00:00 -- -- -- -- -- -- -- -- --
2020-05-08 14:00:00 -- -- -- -- -- -- -- -- --
2020-05-08 13:00:00 -- -- -- -- -- -- -- -- --
2020-05-08 12:00:00 -- -- -- -- -- -- -- -- --
2020-05-08 11:00:00 -- -- -- -- -- -- -- -- --
2020-05-08 10:00:00 -- -- -- -- -- -- -- -- --
2020-05-08 09:00:00 -- -- -- -- -- -- -- -- --
2020-05-08 08:00:00 -- -- -- -- -- -- -- -- --
2020-05-08 07:00:00 -- -- -- -- -- -- -- -- --
2020-05-08 06:00:00 -- -- -- -- -- -- -- -- --
2020-05-08 05:00:00 -- -- -- -- -- -- -- -- --
2020-05-08 04:00:00 14.1 8 Sur 50 Sudoeste 2 -- -- 79
2020-05-08 03:00:00 15.1 18 Sudeste 26 Nordeste 0 -- -- 78
2020-05-08 02:00:00 14.7 18 Nordeste 21 Nordeste 0 -- -- 79
2020-05-08 01:00:00 16.9 12 Norte 17 Oeste 0 -- -- 69
2020-05-08 00:00:00 16.8 5 Sudoeste 27 Sudeste 0 -- -- 65
2020-05-07 23:00:00 17 13 Sudeste 27 Sudeste 0 -- -- 62
2020-05-07 22:00:00 18.3 19 Sudeste 30 Sudeste 0 -- -- 58
2020-05-07 21:00:00 20.2 19 Sudeste 36 Sudeste 0 -- -- 49
2020-05-07 20:00:00 23.3 11 Nordeste 15 Nordeste 0 -- -- 49
2020-05-07 19:00:00 23.7 7 Sur 19 Sudoeste 0 -- -- 42
2020-05-07 18:00:00 24.2 17 Sur 28 Sur 0 -- -- 37
2020-05-07 17:00:00 25.3 15 Sur 30 Sur 0 -- -- 33
2020-05-07 16:00:00 25.4 12 Sudeste 28 Sudeste 0 -- -- 34
2020-05-07 15:00:00 24.2 14 Sudeste 27 Sudeste 0 -- -- 37
2020-05-07 14:00:00 23.2 10 Sudeste 19 Sudeste 0 -- -- 39
2020-05-07 13:00:00 20.8 9 Nordeste 21 Sudeste 0 -- -- 50
2020-05-07 12:00:00 19.3 14 Sudeste 22 Sudeste 0 -- -- 52
2020-05-07 11:00:00 17.7 10 Nordeste 17 Nordeste 0 -- -- 64
2020-05-07 10:00:00 15 11 Nordeste 15 Nordeste 0 -- -- 72
2020-05-07 09:00:00 12 6 Norte 12 Norte 0 -- -- 83
2020-05-07 08:00:00 10 11 Norte 14 Norte 0 -- -- 84
2020-05-07 07:00:00 9 9 Norte 15 Norte 0 -- -- 86
2020-05-07 06:00:00 9.9 8 Norte 14 Nordeste 0 -- -- 82
2020-05-07 05:00:00 10.3 9 Norte 12 Norte 0 -- -- 83
2020-05-07 04:00:00 11 7 Norte 18 Este 0 -- -- 79
2020-05-07 03:00:00 12.3 12 Este 18 Este 0 -- -- 72
2020-05-07 02:00:00 13.1 5 Noroeste 10 Sudeste 0 -- -- 70
2020-05-07 01:00:00 16.3 9 Este 9 Este 0 -- -- 50
2020-05-07 00:00:00 16.3 4 Sudeste 6 Sur 0 -- -- 50
2020-05-06 23:00:00 15.4 7 Sur 10 Sur 0 -- -- 55
2020-05-06 22:00:00 16.2 9 Sudeste 12 Sur 0 -- -- 56
2020-05-06 21:00:00 19.8 5 Sur 10 Sudoeste 0 -- -- 44
2020-05-06 20:00:00 20.6 5 Sur 18 Oeste 0 -- -- 36
2020-05-06 19:00:00 21.5 8 Sudoeste 17 Sudoeste 0 -- -- 36
2020-05-06 18:00:00 20.7 9 Sur 22 Sur 0 -- -- 39
2020-05-06 17:00:00 21.1 12 Sur 24 Sudoeste 0 -- -- 38
2020-05-06 16:00:00 20.9 14 Sur 23 Sur 0 -- -- 40
2020-05-06 15:00:00 19.9 10 Sur 22 Sudoeste 0 -- -- 40
2020-05-06 14:00:00 18.9 12 Sudoeste 22 Sudoeste 0 -- -- 49
2020-05-06 13:00:00 18.1 9 Sur 18 Sur 0 -- -- 52
2020-05-06 12:00:00 16.9 7 Sur 12 Sudoeste 0 -- -- 60
2020-05-06 11:00:00 14.5 4 Oeste 8 Oeste 0 -- -- 63
2020-05-06 10:00:00 11.7 4 Noroeste 8 Noroeste 0 -- -- 75
2020-05-06 09:00:00 8.4 4 Noroeste 7 Nordeste 0 -- -- 84
2020-05-06 08:00:00 6.3 6 Nordeste 10 Nordeste 0 -- -- 86
2020-05-06 07:00:00 5.9 5 Nordeste 6 Norte 0 -- -- 87
2020-05-06 06:00:00 6.3 5 Nordeste 8 Nordeste 0 -- -- 86
2020-05-06 05:00:00 6.9 5 Norte 6 Nordeste 0 -- -- 83
2020-05-06 04:00:00 8.1 6 Norte 9 Norte 0 -- -- 80
2020-05-06 03:00:00 10.9 4 Norte 12 Este 0 -- -- 67
2020-05-06 02:00:00 11.1 4 Nordeste 17 Norte 0 -- -- 66
2020-05-06 01:00:00 13.1 8 Oeste 10 Oeste 0 -- -- 60
2020-05-06 00:00:00 13.7 5 Sudoeste 8 Sudoeste 0 -- -- 58
2020-05-05 23:00:00 13.9 8 Sur 12 Sudoeste 0 -- -- 59
2020-05-05 22:00:00 15 9 Sudoeste 16 Sudoeste 0 -- -- 54
2020-05-05 21:00:00 16.9 13 Sudoeste 33 Sudoeste 0 -- -- 48
2020-05-05 20:00:00 18.5 21 Sudoeste 39 Sudoeste 0 -- -- 42
2020-05-05 19:00:00 19.2 28 Sudoeste 42 Sudoeste 0 -- -- 41
2020-05-05 18:00:00 19.3 23 Sudoeste 37 Sudoeste 0 -- -- 43
2020-05-05 17:00:00 19.3 24 Sudoeste 41 Sudoeste 0 -- -- 42
2020-05-05 16:00:00 18.2 13 Sudoeste 38 Sudoeste 0 -- -- 46
2020-05-05 15:00:00 18.2 21 Sudoeste 31 Sudoeste 0 -- -- 46
2020-05-05 14:00:00 17.2 17 Sur 33 Sudoeste 0 -- -- 51
2020-05-05 13:00:00 16.2 18 Sudoeste 30 Sudoeste 0 -- -- 54
2020-05-05 12:00:00 15.2 17 Sudoeste 26 Sudoeste 0 -- -- 56
2020-05-05 11:00:00 13.9 19 Sudoeste 27 Sur 0 -- -- 65
2020-05-05 10:00:00 12.4 18 Sudoeste 27 Sudoeste 0 -- -- 74
2020-05-05 09:00:00 10.9 17 Sur 24 Sur 0 -- -- 81
2020-05-05 08:00:00 9.5 13 Sur 17 Sur 0 -- -- 84
2020-05-05 07:00:00 9.4 12 Sur 17 Sudoeste 0 -- -- 83
2020-05-05 06:00:00 9.5 11 Sur 23 Sur 0 -- -- 80
2020-05-05 05:00:00 9.9 13 Sur 18 Sudoeste 0 -- -- 77
2020-05-05 04:00:00 10.2 13 Sudoeste 15 Sudoeste 0 -- -- 76
2020-05-05 03:00:00 11 11 Sudoeste 22 Sudoeste 0 -- -- 72
2020-05-05 02:00:00 12 13 Sudoeste 19 Sudoeste 0 -- -- 69
2020-05-05 01:00:00 12.8 10 Sudoeste 16 Sudoeste 0 -- -- 71
2020-05-05 00:00:00 13.4 8 Sudoeste 14 Sudoeste 0 -- -- 71
2020-05-04 23:00:00 14.7 11 Sudoeste 21 Sudoeste 0 -- -- 66
2020-05-04 22:00:00 15.7 18 Sudoeste 30 Sudoeste 0 -- -- 62
2020-05-04 21:00:00 17 19 Sudoeste 44 Oeste 0 -- -- 63
2020-05-04 20:00:00 18 33 Oeste 67 Sudoeste 0 -- -- 60
2020-05-04 19:00:00 21 47 Sudoeste 87 Sudoeste 0 -- -- 43
2020-05-04 18:00:00 21.7 53 Sudoeste 81 Sudoeste 0 -- -- 39
2020-05-04 17:00:00 23.4 26 Sudoeste 55 Sudoeste 0 -- -- 48
2020-05-04 16:00:00 25.1 35 Sudoeste 48 Sudoeste 0 -- -- 43
2020-05-04 15:00:00 25.6 21 Sur 37 Sur 0 -- -- 44
2020-05-04 14:00:00 23.7 27 Sudeste 38 Sudeste 0 -- -- 49
2020-05-04 13:00:00 20.1 14 Sur 24 Sudeste 0 -- -- 59
2020-05-04 12:00:00 19.2 14 Sudeste 27 Sudeste 0 -- -- 57
2020-05-04 11:00:00 18.5 20 Este 30 Este 0 -- -- 60
2020-05-04 10:00:00 17.6 12 Este 22 Sudeste 0 -- -- 62
2020-05-04 09:00:00 15.8 5 Este 26 Este 0 -- -- 66
2020-05-04 08:00:00 14.7 18 Este 28 Este 0 -- -- 65
2020-05-04 07:00:00 11.5 4 Norte 14 Este 0 -- -- 78
2020-05-04 06:00:00 10.9 5 Norte 14 Este 0 -- -- 82
2020-05-04 05:00:00 12.9 6 Norte 26 Este 0 -- -- 72
2020-05-04 04:00:00 15 7 Nordeste 26 Este 0 -- -- 64
2020-05-04 03:00:00 15.6 22 Este 28 Sudeste 0 -- -- 61
2020-05-04 02:00:00 16.8 25 Este 29 Este 0 -- -- 57
2020-05-04 01:00:00 16.8 21 Sudeste 26 Sudeste 0 -- -- 59
2020-05-04 00:00:00 17.7 24 Sudeste 26 Sudeste 0 -- -- 56
2020-05-03 23:00:00 19.5 19 Este 23 Este 0 -- -- 49
2020-05-03 22:00:00 18.9 16 Sudeste 18 Sudeste 0 -- -- 57
2020-05-03 21:00:00 21.3 10 Sur 15 Sur 0 -- -- 52
2020-05-03 20:00:00 23.5 12 Sur 31 Sur 0 -- -- 41
2020-05-03 19:00:00 24.6 17 Sur 32 Sudoeste 0 -- -- 35
2020-05-03 18:00:00 24.6 17 Sur 31 Sudoeste 0 -- -- 35
2020-05-03 17:00:00 24.3 18 Sudoeste 28 Sudoeste 0 -- -- 34
2020-05-03 16:00:00 23.8 10 Oeste 21 Sudoeste 0 -- -- 36
2020-05-03 15:00:00 22.8 11 Sudoeste 21 Oeste 0 -- -- 41
2020-05-03 14:00:00 21.6 12 Sur 24 Sudoeste 0 -- -- 46
2020-05-03 13:00:00 20.7 11 Sur 23 Sur 0 -- -- 54
2020-05-03 12:00:00 19.2 10 Sur 19 Sur 0 -- -- 59
2020-05-03 11:00:00 17.3 5 Sudeste 12 Este 0 -- -- 69
2020-05-03 10:00:00 14.2 5 Norte 8 Norte 0 -- -- 85
2020-05-03 09:00:00 10.1 3 Norte 5 Este 0 -- -- 90
2020-05-03 08:00:00 8.1 3 Nordeste 17 Este 0 -- -- 87
2020-05-03 07:00:00 7.8 7 Nordeste 9 Este 0 -- -- 89
2020-05-03 06:00:00 9.1 4 Sudeste 12 Sur 0 -- -- 85
2020-05-03 05:00:00 9.5 6 Sudoeste 11 Sur 0 -- -- 81
2020-05-03 04:00:00 12.3 7 Nordeste 10 Nordeste 0 -- -- 73
2020-05-03 03:00:00 12.6 0 Calma 14 Sur 0 -- -- 71
2020-05-03 02:00:00 13.4 7 Sur 11 Sur 0 -- -- 69
2020-05-03 01:00:00 14 8 Sur 10 Sur 0 -- -- 69
2020-05-03 00:00:00 15 9 Sudoeste 16 Sudoeste 0 -- -- 64
2020-05-02 23:00:00 15.8 13 Sudoeste 22 Sudoeste 0 -- -- 62
2020-05-02 22:00:00 17.4 15 Sudoeste 20 Sudoeste 0 -- -- 56
2020-05-02 21:00:00 19.6 14 Sudoeste 21 Sudoeste 0 -- -- 51
2020-05-02 20:00:00 21.4 12 Sudoeste 24 Sudoeste 0 -- -- 46
2020-05-02 19:00:00 21.6 14 Sudoeste 27 Sudoeste 0 -- -- 49
2020-05-02 18:00:00 20.9 16 Sur 32 Sudoeste 0 -- -- 49
2020-05-02 17:00:00 20.7 14 Sudoeste 30 Sudoeste 0 -- -- 51
2020-05-02 16:00:00 20.6 17 Sudoeste 30 Sudoeste 0 -- -- 52
2020-05-02 15:00:00 19.6 19 Sudoeste 28 Sudoeste 0 -- -- 54
2020-05-02 14:00:00 19.2 16 Sudoeste 27 Sudoeste 0 -- -- 56
2020-05-02 13:00:00 17.2 15 Sudoeste 25 Sudoeste 0 -- -- 63
2020-05-02 12:00:00 16.4 16 Sudoeste 28 Oeste 0 -- -- 72
2020-05-02 11:00:00 14.8 17 Sudoeste 26 Sudoeste 0 -- -- 77
2020-05-02 10:00:00 13.3 15 Sudoeste 21 Sudoeste 0 -- -- 86
2020-05-02 09:00:00 11.4 5 Sur 8 Sur 0 -- -- 91
2020-05-02 08:00:00 10.2 5 Sudeste 12 Sur 0 -- -- 92
2020-05-02 07:00:00 10 9 Sur 13 Sur 0 -- -- 91
2020-05-02 06:00:00 10.2 9 Sur 15 Sudoeste 0 -- -- 90
2020-05-02 05:00:00 10.9 10 Sur 17 Sur 0 -- -- 89
2020-05-02 04:00:00 11.4 10 Sur 19 Oeste 0 -- -- 88
2020-05-02 03:00:00 12 14 Sudoeste 19 Oeste 0 -- -- 87
2020-05-02 02:00:00 12.3 9 Oeste 22 Oeste 0 -- -- 85
2020-05-02 01:00:00 12.9 14 Oeste 23 Oeste 0 -- -- 83
2020-05-02 00:00:00 13.8 17 Oeste 32 Oeste 0 -- -- 79
2020-05-01 23:00:00 14.6 21 Oeste 40 Oeste 0 -- -- 75
2020-05-01 22:00:00 15.6 23 Sudoeste 37 Sudoeste 0 -- -- 71
2020-05-01 21:00:00 16.9 28 Sudoeste 51 Sudoeste 0 -- -- 67
2020-05-01 20:00:00 17.8 40 Sudoeste 55 Sudoeste 0 -- -- 62
2020-05-01 19:00:00 19.5 37 Sudoeste 59 Sudoeste 0 -- -- 60
2020-05-01 18:00:00 19.7 39 Sudoeste 59 Oeste 0 -- -- 58
2020-05-01 17:00:00 19.5 42 Sudoeste 61 Sudoeste 0 -- -- 60
2020-05-01 16:00:00 19 37 Sudoeste 54 Sudoeste 0 -- -- 61
2020-05-01 15:00:00 19.1 33 Sudoeste 54 Sudoeste 0 -- -- 60
2020-05-01 14:00:00 19 39 Oeste 55 Sudoeste 0 -- -- 61
2020-05-01 13:00:00 18 38 Sudoeste 57 Sudoeste 0 -- -- 64
2020-05-01 12:00:00 16.4 37 Sudoeste 57 Sudoeste 0 -- -- 72
2020-05-01 11:00:00 15.1 36 Sudoeste 56 Sudoeste 0 -- -- 78
2020-05-01 10:00:00 13.4 30 Sudoeste 44 Sudoeste 0 -- -- 87
2020-05-01 09:00:00 12 30 Sudoeste 43 Sudoeste 0 -- -- 89
2020-05-01 08:00:00 11.3 30 Sudoeste 42 Sudoeste 0 -- -- 91
2020-05-01 07:00:00 10.9 24 Sudoeste 35 Sudoeste 0.2 -- -- 91
2020-05-01 06:00:00 11 22 Sudoeste 37 Sudoeste 0.2 -- -- 92
2020-05-01 05:00:00 11 29 Sudoeste 46 Sudoeste 0 -- -- 90
2020-05-01 04:00:00 10.8 31 Sudoeste 45 Sudoeste 0 -- -- 89
2020-05-01 03:00:00 10.9 30 Sudoeste 44 Sudoeste 0 -- -- 89
2020-05-01 02:00:00 10.8 29 Sudoeste 47 Sudoeste 0 -- -- 88
2020-05-01 01:00:00 10.7 28 Sudoeste 46 Sudoeste 0 -- -- 89
2020-05-01 00:00:00 10.8 31 Sudoeste 49 Sudoeste 0 -- -- 87
2020-04-30 23:00:00 10.7 30 Sudoeste 44 Sudoeste 0 -- -- 86
2020-04-30 22:00:00 10.8 30 Sudoeste 44 Sudoeste 0 -- -- 85
2020-04-30 21:00:00 11 27 Sudoeste 48 Sudoeste 0 -- -- 83
2020-04-30 20:00:00 11.6 35 Sudoeste 55 Sudoeste 0 -- -- 78
2020-04-30 19:00:00 12.2 32 Sudoeste 54 Sudoeste 0 -- -- 73
2020-04-30 18:00:00 12.7 38 Sudoeste 57 Sudoeste 0 -- -- 67
2020-04-30 17:00:00 13.2 44 Sudoeste 59 Sudoeste 0 -- -- 65
2020-04-30 16:00:00 13.6 36 Sudoeste 53 Sudoeste 0 -- -- 62
2020-04-30 15:00:00 14.5 37 Sudoeste 55 Sudoeste 0 -- -- 62
2020-04-30 14:00:00 12.8 32 Sudoeste 50 Sudoeste 0 -- -- 65
2020-04-30 13:00:00 11.7 26 Sudoeste 47 Sudoeste 0 -- -- 66
2020-04-30 12:00:00 11 30 Sudoeste 41 Sudoeste 0 -- -- 70
2020-04-30 11:00:00 11 31 Sudoeste 44 Sudoeste 0 -- -- 72
2020-04-30 10:00:00 9.4 27 Sudoeste 46 Sudoeste 0 -- -- 79
2020-04-30 09:00:00 8.8 28 Sudoeste 39 Sudoeste 0 -- -- 80
2020-04-30 08:00:00 8.2 29 Sudoeste 51 Sudoeste 0 -- -- 82
2020-04-30 07:00:00 7.8 29 Sudoeste 43 Sudoeste 0 -- -- 84
2020-04-30 06:00:00 7.8 26 Sudoeste 40 Sudoeste 0 -- -- 86
2020-04-30 05:00:00 7.5 30 Sudoeste 43 Sudoeste 0 -- -- 88
2020-04-30 04:00:00 8 33 Sudoeste 53 Sudoeste 0 -- -- 82
2020-04-30 03:00:00 7.9 34 Sudoeste 48 Sudoeste 0 -- -- 81
2020-04-30 02:00:00 8.3 20 Sudoeste 41 Sudoeste 0 -- -- 78
2020-04-30 01:00:00 8.5 24 Sudoeste 46 Sudoeste 0 -- -- 73
2020-04-30 00:00:00 8.8 38 Sudoeste 51 Sudoeste 0 -- -- 69
2020-04-29 23:00:00 9.6 35 Sudoeste 49 Sudoeste 0 -- -- 73
2020-04-29 22:00:00 10.6 24 Sudoeste 51 Sudoeste 0 -- -- 72
2020-04-29 21:00:00 11.3 29 Sudoeste 51 Sudoeste 0 -- -- 65
2020-04-29 20:00:00 11.9 26 Sudoeste 58 Sudoeste 0 -- -- 60
2020-04-29 19:00:00 12.9 33 Sudoeste 67 Sudoeste 0 -- -- 61
2020-04-29 18:00:00 13.7 39 Sudoeste 66 Oeste 0 -- -- 62
2020-04-29 17:00:00 11.9 25 Sudoeste 46 Sudoeste 0 -- -- 78
2020-04-29 16:00:00 11.6 33 Sudoeste 55 Sudoeste 0 -- -- 79
2020-04-29 15:00:00 11.6 33 Sudoeste 54 Sudoeste 0 -- -- 77
2020-04-29 14:00:00 11.2 20 Sudoeste 37 Sudoeste 0 -- -- 79
2020-04-29 13:00:00 10.5 25 Sudoeste 44 Sudoeste 0 -- -- 77
2020-04-29 12:00:00 10.3 31 Sudoeste 48 Sudoeste 0 -- -- 78
2020-04-29 11:00:00 9.6 18 Sudoeste 46 Sur 0 -- -- 81
2020-04-29 10:00:00 8.9 28 Sudoeste 40 Sudoeste 0 -- -- 84
2020-04-29 09:00:00 8.1 19 Sudoeste 39 Sudoeste 0 -- -- 85
2020-04-29 08:00:00 7.7 25 Sudoeste 38 Sudoeste 0 -- -- 86
2020-04-29 07:00:00 7.8 21 Sur 32 Sudoeste 0 -- -- 86
2020-04-29 06:00:00 8.3 24 Sudoeste 36 Sur 0 -- -- 84
2020-04-29 05:00:00 8.4 21 Sudoeste 31 Sudoeste 0 -- -- 83
2020-04-29 04:00:00 7.8 17 Sudoeste 23 Sudoeste 0 -- -- 84
2020-04-29 03:00:00 7.8 15 Sudoeste 27 Sudoeste 0 -- -- 81
2020-04-29 02:00:00 8.1 19 Sudoeste 29 Sudoeste 0 -- -- 76
2020-04-29 01:00:00 7.9 12 Sudoeste 18 Sudoeste 0 -- -- 74
2020-04-29 00:00:00 8.2 10 Sudoeste 20 Noroeste 0 -- -- 71
2020-04-28 23:00:00 9.3 13 Oeste 23 Oeste 0 -- -- 65
2020-04-28 22:00:00 10.8 11 Oeste 21 Oeste 0 -- -- 64
2020-04-28 21:00:00 11.6 10 Oeste 18 Oeste 0 -- -- 62
2020-04-28 20:00:00 12 10 Oeste 25 Noroeste 0 -- -- 64
2020-04-28 19:00:00 11.1 3 Sudoeste 31 Oeste 0.2 -- -- 73
2020-04-28 18:00:00 11.1 12 Noroeste 36 Oeste 0.4 -- -- 75
2020-04-28 17:00:00 12.3 13 Noroeste 39 Oeste 0 -- -- 66
2020-04-28 16:00:00 13.1 27 Sudoeste 40 Oeste 0 -- -- 55
2020-04-28 15:00:00 13 16 Sudoeste 28 Sudoeste 0 -- -- 59
2020-04-28 14:00:00 11.9 17 Sudoeste -- -- -- -- -- 65
2020-04-28 13:00:00 -- -- -- -- -- -- -- -- --
2020-04-28 12:00:00 -- -- -- -- -- -- -- -- --
2020-04-28 11:00:00 -- -- -- -- -- -- -- -- --
2020-04-28 10:00:00 -- -- -- -- -- -- -- -- --
2020-04-28 09:00:00 -- -- -- -- -- -- -- -- --
2020-04-28 08:00:00 -- -- -- -- -- -- -- -- --
2020-04-28 07:00:00 -- -- -- -- -- -- -- -- --
2020-04-28 06:00:00 -- -- -- -- -- -- -- -- --
2020-04-28 05:00:00 -- -- -- -- -- -- -- -- --
2020-04-28 04:00:00 -- -- -- -- -- -- -- -- --
2020-04-28 03:00:00 -- -- -- -- -- -- -- -- --
2020-04-28 02:00:00 -- -- -- -- -- -- -- -- --
2020-04-28 01:00:00 -- -- -- -- -- -- -- -- --
2020-04-28 00:00:00 -- -- -- -- -- -- -- -- --
2020-04-27 23:00:00 -- -- -- -- -- -- -- -- --
2020-04-27 22:00:00 -- -- -- -- -- -- -- -- --
2020-04-27 21:00:00 -- -- -- -- -- -- -- -- --
2020-04-27 20:00:00 -- -- -- -- -- -- -- -- --
2020-04-27 19:00:00 -- -- -- -- -- -- -- -- --
2020-04-27 18:00:00 -- -- -- -- -- -- -- -- --
2020-04-27 17:00:00 -- -- -- -- -- -- -- -- --
2020-04-27 16:00:00 -- -- -- -- -- -- -- -- --
2020-04-27 15:00:00 -- -- -- -- -- -- -- -- --
2020-04-27 14:00:00 -- -- -- -- -- -- -- -- --
2020-04-27 13:00:00 -- -- -- -- -- -- -- -- --
2020-04-27 12:00:00 -- -- -- -- -- -- -- -- --
2020-04-27 11:00:00 -- -- -- -- -- -- -- -- --
2020-04-27 10:00:00 -- -- -- -- -- -- -- -- --
2020-04-27 09:00:00 -- -- -- -- -- -- -- -- --
2020-04-27 08:00:00 -- -- -- -- -- -- -- -- --
2020-04-27 07:00:00 -- -- -- -- -- -- -- -- --
2020-04-27 06:00:00 -- -- -- -- -- -- -- -- --
2020-04-27 05:00:00 -- -- -- -- -- -- -- -- --
2020-04-27 04:00:00 -- -- -- -- -- -- -- -- --
2020-04-27 03:00:00 -- -- -- -- -- -- -- -- --
2020-04-27 02:00:00 -- -- -- -- -- -- -- -- --
2020-04-27 01:00:00 -- -- -- -- -- -- -- -- --
2020-04-27 00:00:00 -- -- -- -- -- -- -- -- --